sensor_id;sensor_type;location;lat;lon;timestamp;P1;durP1;ratioP1;P2;durP2;ratioP2
33160;SDS011;19522;45.656;11.302;2023-05-10T00:01:46;11.60;;;7.55;;
33160;SDS011;19522;45.656;11.302;2023-05-10T00:04:12;10.23;;;8.07;;
33160;SDS011;19522;45.656;11.302;2023-05-10T00:06:37;8.93;;;7.63;;
33160;SDS011;19522;45.656;11.302;2023-05-10T00:09:03;10.45;;;7.63;;
33160;SDS011;19522;45.656;11.302;2023-05-10T00:11:28;10.40;;;7.82;;
33160;SDS011;19522;45.656;11.302;2023-05-10T00:13:54;9.75;;;6.60;;
33160;SDS011;19522;45.656;11.302;2023-05-10T00:16:20;9.15;;;6.88;;
33160;SDS011;19522;45.656;11.302;2023-05-10T00:18:45;8.52;;;6.50;;
33160;SDS011;19522;45.656;11.302;2023-05-10T00:21:10;8.57;;;6.40;;
33160;SDS011;19522;45.656;11.302;2023-05-10T00:23:36;8.82;;;6.35;;
33160;SDS011;19522;45.656;11.302;2023-05-10T00:26:02;8.32;;;6.43;;
33160;SDS011;19522;45.656;11.302;2023-05-10T00:28:27;9.68;;;6.10;;
33160;SDS011;19522;45.656;11.302;2023-05-10T00:30:54;9.55;;;6.53;;
33160;SDS011;19522;45.656;11.302;2023-05-10T00:33:19;7.97;;;5.53;;
33160;SDS011;19522;45.656;11.302;2023-05-10T00:35:44;8.93;;;6.47;;
33160;SDS011;19522;45.656;11.302;2023-05-10T00:38:10;7.57;;;5.00;;
33160;SDS011;19522;45.656;11.302;2023-05-10T00:40:35;7.68;;;5.50;;
33160;SDS011;19522;45.656;11.302;2023-05-10T00:43:02;6.60;;;4.85;;
33160;SDS011;19522;45.656;11.302;2023-05-10T00:45:28;8.63;;;5.00;;
33160;SDS011;19522;45.656;11.302;2023-05-10T00:47:55;14.02;;;5.38;;
33160;SDS011;19522;45.656;11.302;2023-05-10T00:50:24;6.78;;;4.57;;
33160;SDS011;19522;45.656;11.302;2023-05-10T00:52:49;6.10;;;4.57;;
33160;SDS011;19522;45.656;11.302;2023-05-10T00:55:15;7.75;;;4.47;;
33160;SDS011;19522;45.656;11.302;2023-05-10T00:57:40;7.72;;;4.78;;
33160;SDS011;19522;45.656;11.302;2023-05-10T01:00:07;5.93;;;4.47;;
33160;SDS011;19522;45.656;11.302;2023-05-10T01:02:33;9.60;;;4.82;;
33160;SDS011;19522;45.656;11.302;2023-05-10T01:04:59;6.80;;;4.78;;
33160;SDS011;19522;45.656;11.302;2023-05-10T01:07:25;6.35;;;4.18;;
33160;SDS011;19522;45.656;11.302;2023-05-10T01:09:50;7.32;;;4.43;;
33160;SDS011;19522;45.656;11.302;2023-05-10T01:12:16;8.98;;;4.00;;
33160;SDS011;19522;45.656;11.302;2023-05-10T01:14:41;7.05;;;4.20;;
33160;SDS011;19522;45.656;11.302;2023-05-10T01:17:08;5.65;;;4.03;;
33160;SDS011;19522;45.656;11.302;2023-05-10T01:19:35;5.38;;;3.75;;
33160;SDS011;19522;45.656;11.302;2023-05-10T01:22:10;5.80;;;3.97;;
33160;SDS011;19522;45.656;11.302;2023-05-10T01:24:53;6.43;;;4.40;;
33160;SDS011;19522;45.656;11.302;2023-05-10T01:28:02;5.20;;;4.10;;
33160;SDS011;19522;45.656;11.302;2023-05-10T01:30:54;6.35;;;4.13;;
33160;SDS011;19522;45.656;11.302;2023-05-10T01:36:40;7.85;;;3.67;;
33160;SDS011;19522;45.656;11.302;2023-05-10T01:39:26;8.43;;;4.00;;
33160;SDS011;19522;45.656;11.302;2023-05-10T01:42:08;5.45;;;4.07;;
33160;SDS011;19522;45.656;11.302;2023-05-10T01:50:04;7.03;;;4.38;;
33160;SDS011;19522;45.656;11.302;2023-05-10T01:52:42;4.68;;;3.78;;
33160;SDS011;19522;45.656;11.302;2023-05-10T01:55:11;5.30;;;3.58;;
33160;SDS011;19522;45.656;11.302;2023-05-10T01:57:42;5.55;;;3.10;;
33160;SDS011;19522;45.656;11.302;2023-05-10T02:00:09;5.20;;;3.75;;
33160;SDS011;19522;45.656;11.302;2023-05-10T02:02:39;6.25;;;4.10;;
33160;SDS011;19522;45.656;11.302;2023-05-10T02:05:07;5.70;;;3.63;;
33160;SDS011;19522;45.656;11.302;2023-05-10T02:07:35;4.55;;;3.75;;
33160;SDS011;19522;45.656;11.302;2023-05-10T02:10:02;4.10;;;3.67;;
33160;SDS011;19522;45.656;11.302;2023-05-10T02:12:29;4.82;;;3.90;;
33160;SDS011;19522;45.656;11.302;2023-05-10T02:14:57;6.18;;;3.63;;
33160;SDS011;19522;45.656;11.302;2023-05-10T02:17:30;5.70;;;3.58;;
33160;SDS011;19522;45.656;11.302;2023-05-10T02:19:58;4.70;;;3.60;;
33160;SDS011;19522;45.656;11.302;2023-05-10T02:22:25;4.88;;;3.50;;
33160;SDS011;19522;45.656;11.302;2023-05-10T02:24:53;4.32;;;3.35;;
33160;SDS011;19522;45.656;11.302;2023-05-10T02:27:21;4.57;;;3.63;;
33160;SDS011;19522;45.656;11.302;2023-05-10T02:29:49;5.65;;;3.33;;
33160;SDS011;19522;45.656;11.302;2023-05-10T02:32:16;3.88;;;3.05;;
33160;SDS011;19522;45.656;11.302;2023-05-10T02:34:42;7.35;;;3.28;;
33160;SDS011;19522;45.656;11.302;2023-05-10T02:37:10;5.53;;;3.33;;
33160;SDS011;19522;45.656;11.302;2023-05-10T02:39:38;4.95;;;3.03;;
33160;SDS011;19522;45.656;11.302;2023-05-10T02:42:08;8.07;;;3.08;;
33160;SDS011;19522;45.656;11.302;2023-05-10T02:44:40;6.78;;;3.33;;
33160;SDS011;19522;45.656;11.302;2023-05-10T02:47:07;5.03;;;3.22;;
33160;SDS011;19522;45.656;11.302;2023-05-10T02:49:32;5.22;;;3.70;;
33160;SDS011;19522;45.656;11.302;2023-05-10T02:51:59;5.30;;;3.42;;
33160;SDS011;19522;45.656;11.302;2023-05-10T02:54:29;5.35;;;3.25;;
33160;SDS011;19522;45.656;11.302;2023-05-10T02:56:58;5.97;;;3.22;;
33160;SDS011;19522;45.656;11.302;2023-05-10T02:59:25;5.95;;;3.63;;
33160;SDS011;19522;45.656;11.302;2023-05-10T03:01:51;4.25;;;3.25;;
33160;SDS011;19522;45.656;11.302;2023-05-10T03:04:17;5.28;;;2.92;;
33160;SDS011;19522;45.656;11.302;2023-05-10T03:06:42;5.07;;;3.03;;
33160;SDS011;19522;45.656;11.302;2023-05-10T03:09:08;4.10;;;2.97;;
33160;SDS011;19522;45.656;11.302;2023-05-10T03:17:41;5.55;;;2.85;;
33160;SDS011;19522;45.656;11.302;2023-05-10T03:20:09;4.00;;;2.97;;
33160;SDS011;19522;45.656;11.302;2023-05-10T03:22:44;4.32;;;2.83;;
33160;SDS011;19522;45.656;11.302;2023-05-10T03:25:12;5.03;;;2.97;;
33160;SDS011;19522;45.656;11.302;2023-05-10T03:27:41;3.83;;;2.90;;
33160;SDS011;19522;45.656;11.302;2023-05-10T03:30:12;5.38;;;3.13;;
33160;SDS011;19522;45.656;11.302;2023-05-10T03:32:38;6.47;;;3.40;;
33160;SDS011;19522;45.656;11.302;2023-05-10T03:35:07;6.97;;;3.40;;
33160;SDS011;19522;45.656;11.302;2023-05-10T03:37:33;3.92;;;2.88;;
33160;SDS011;19522;45.656;11.302;2023-05-10T03:39:59;6.28;;;3.35;;
33160;SDS011;19522;45.656;11.302;2023-05-10T03:42:25;4.18;;;3.20;;
33160;SDS011;19522;45.656;11.302;2023-05-10T03:44:50;5.53;;;3.10;;
33160;SDS011;19522;45.656;11.302;2023-05-10T03:47:15;5.82;;;3.08;;
33160;SDS011;19522;45.656;11.302;2023-05-10T03:49:41;3.17;;;2.58;;
33160;SDS011;19522;45.656;11.302;2023-05-10T03:52:06;4.20;;;2.78;;
33160;SDS011;19522;45.656;11.302;2023-05-10T03:54:32;5.25;;;2.65;;
33160;SDS011;19522;45.656;11.302;2023-05-10T03:59:32;5.32;;;2.50;;
33160;SDS011;19522;45.656;11.302;2023-05-10T04:01:58;3.90;;;2.63;;
33160;SDS011;19522;45.656;11.302;2023-05-10T04:04:23;4.25;;;3.08;;
33160;SDS011;19522;45.656;11.302;2023-05-10T04:06:49;3.88;;;2.70;;
33160;SDS011;19522;45.656;11.302;2023-05-10T04:09:14;5.85;;;3.08;;
33160;SDS011;19522;45.656;11.302;2023-05-10T04:11:41;2.97;;;2.40;;
33160;SDS011;19522;45.656;11.302;2023-05-10T04:14:06;4.05;;;3.00;;
33160;SDS011;19522;45.656;11.302;2023-05-10T04:16:32;3.95;;;2.50;;
33160;SDS011;19522;45.656;11.302;2023-05-10T04:18:57;4.35;;;2.80;;
33160;SDS011;19522;45.656;11.302;2023-05-10T04:21:22;4.43;;;2.63;;
33160;SDS011;19522;45.656;11.302;2023-05-10T04:23:51;6.72;;;2.95;;
33160;SDS011;19522;45.656;11.302;2023-05-10T04:26:16;3.70;;;2.63;;
33160;SDS011;19522;45.656;11.302;2023-05-10T04:28:42;4.07;;;2.60;;
33160;SDS011;19522;45.656;11.302;2023-05-10T04:31:08;4.32;;;2.80;;
33160;SDS011;19522;45.656;11.302;2023-05-10T04:33:34;5.47;;;2.90;;
33160;SDS011;19522;45.656;11.302;2023-05-10T04:36:01;4.78;;;2.65;;
33160;SDS011;19522;45.656;11.302;2023-05-10T04:38:36;3.75;;;2.63;;
33160;SDS011;19522;45.656;11.302;2023-05-10T04:41:05;3.72;;;2.42;;
33160;SDS011;19522;45.656;11.302;2023-05-10T04:43:36;3.53;;;2.53;;
33160;SDS011;19522;45.656;11.302;2023-05-10T04:46:03;3.90;;;2.72;;
33160;SDS011;19522;45.656;11.302;2023-05-10T04:48:30;4.63;;;2.65;;
33160;SDS011;19522;45.656;11.302;2023-05-10T04:50:56;3.45;;;2.05;;
33160;SDS011;19522;45.656;11.302;2023-05-10T04:53:21;3.47;;;2.72;;
33160;SDS011;19522;45.656;11.302;2023-05-10T04:55:47;4.90;;;2.80;;
33160;SDS011;19522;45.656;11.302;2023-05-10T04:58:13;3.20;;;2.25;;
33160;SDS011;19522;45.656;11.302;2023-05-10T05:00:38;4.55;;;2.60;;
33160;SDS011;19522;45.656;11.302;2023-05-10T05:03:04;6.28;;;2.17;;
33160;SDS011;19522;45.656;11.302;2023-05-10T05:05:30;4.18;;;2.40;;
33160;SDS011;19522;45.656;11.302;2023-05-10T05:07:55;3.67;;;2.72;;
33160;SDS011;19522;45.656;11.302;2023-05-10T05:10:21;2.95;;;2.30;;
33160;SDS011;19522;45.656;11.302;2023-05-10T05:12:46;3.95;;;2.20;;
33160;SDS011;19522;45.656;11.302;2023-05-10T05:15:12;5.93;;;2.30;;
33160;SDS011;19522;45.656;11.302;2023-05-10T05:17:37;4.30;;;2.60;;
33160;SDS011;19522;45.656;11.302;2023-05-10T05:20:03;5.25;;;2.60;;
33160;SDS011;19522;45.656;11.302;2023-05-10T05:22:29;4.78;;;2.60;;
33160;SDS011;19522;45.656;11.302;2023-05-10T05:24:55;4.22;;;2.55;;
33160;SDS011;19522;45.656;11.302;2023-05-10T05:27:21;4.10;;;2.72;;
33160;SDS011;19522;45.656;11.302;2023-05-10T05:29:49;3.50;;;2.50;;
33160;SDS011;19522;45.656;11.302;2023-05-10T05:32:16;4.97;;;2.50;;
33160;SDS011;19522;45.656;11.302;2023-05-10T05:34:41;4.13;;;2.63;;
33160;SDS011;19522;45.656;11.302;2023-05-10T05:37:12;5.18;;;2.47;;
33160;SDS011;19522;45.656;11.302;2023-05-10T05:39:38;5.20;;;3.25;;
33160;SDS011;19522;45.656;11.302;2023-05-10T05:42:03;3.95;;;2.72;;
33160;SDS011;19522;45.656;11.302;2023-05-10T05:44:29;3.58;;;2.83;;
33160;SDS011;19522;45.656;11.302;2023-05-10T05:46:55;4.88;;;2.42;;
33160;SDS011;19522;45.656;11.302;2023-05-10T05:49:20;5.90;;;2.70;;
33160;SDS011;19522;45.656;11.302;2023-05-10T05:51:46;4.53;;;2.60;;
33160;SDS011;19522;45.656;11.302;2023-05-10T05:54:12;6.35;;;3.03;;
33160;SDS011;19522;45.656;11.302;2023-05-10T05:56:38;5.25;;;3.10;;
33160;SDS011;19522;45.656;11.302;2023-05-10T05:59:03;5.03;;;2.85;;
33160;SDS011;19522;45.656;11.302;2023-05-10T06:01:29;3.67;;;2.75;;
33160;SDS011;19522;45.656;11.302;2023-05-10T06:03:54;4.15;;;2.50;;
33160;SDS011;19522;45.656;11.302;2023-05-10T06:06:20;4.53;;;2.35;;
33160;SDS011;19522;45.656;11.302;2023-05-10T06:08:45;4.35;;;2.58;;
33160;SDS011;19522;45.656;11.302;2023-05-10T06:11:10;4.18;;;2.72;;
33160;SDS011;19522;45.656;11.302;2023-05-10T06:13:36;4.88;;;2.60;;
33160;SDS011;19522;45.656;11.302;2023-05-10T06:16:04;5.03;;;2.60;;
33160;SDS011;19522;45.656;11.302;2023-05-10T06:18:30;3.17;;;2.30;;
33160;SDS011;19522;45.656;11.302;2023-05-10T06:20:56;3.75;;;2.53;;
33160;SDS011;19522;45.656;11.302;2023-05-10T06:23:25;5.60;;;2.90;;
33160;SDS011;19522;45.656;11.302;2023-05-10T06:25:51;4.35;;;2.45;;
33160;SDS011;19522;45.656;11.302;2023-05-10T06:28:17;4.95;;;2.70;;
33160;SDS011;19522;45.656;11.302;2023-05-10T06:30:42;3.47;;;2.67;;
33160;SDS011;19522;45.656;11.302;2023-05-10T06:33:08;5.15;;;3.20;;
33160;SDS011;19522;45.656;11.302;2023-05-10T06:35:33;8.93;;;3.22;;
33160;SDS011;19522;45.656;11.302;2023-05-10T06:37:59;4.80;;;3.05;;
33160;SDS011;19522;45.656;11.302;2023-05-10T06:40:25;4.80;;;3.38;;
33160;SDS011;19522;45.656;11.302;2023-05-10T06:42:51;4.50;;;2.95;;
33160;SDS011;19522;45.656;11.302;2023-05-10T06:45:16;7.57;;;3.25;;
33160;SDS011;19522;45.656;11.302;2023-05-10T06:47:42;3.20;;;2.50;;
33160;SDS011;19522;45.656;11.302;2023-05-10T06:50:08;4.22;;;2.80;;
33160;SDS011;19522;45.656;11.302;2023-05-10T06:52:34;5.65;;;2.88;;
33160;SDS011;19522;45.656;11.302;2023-05-10T06:55:02;3.65;;;2.67;;
33160;SDS011;19522;45.656;11.302;2023-05-10T06:57:29;5.18;;;3.42;;
33160;SDS011;19522;45.656;11.302;2023-05-10T06:59:54;3.97;;;3.03;;
33160;SDS011;19522;45.656;11.302;2023-05-10T07:02:21;4.45;;;2.78;;
33160;SDS011;19522;45.656;11.302;2023-05-10T07:04:47;4.60;;;3.03;;
33160;SDS011;19522;45.656;11.302;2023-05-10T07:07:13;5.78;;;3.25;;
33160;SDS011;19522;45.656;11.302;2023-05-10T07:09:39;6.28;;;3.50;;
33160;SDS011;19522;45.656;11.302;2023-05-10T07:12:05;4.45;;;3.13;;
33160;SDS011;19522;45.656;11.302;2023-05-10T07:14:30;5.85;;;3.45;;
33160;SDS011;19522;45.656;11.302;2023-05-10T07:16:56;4.85;;;3.30;;
33160;SDS011;19522;45.656;11.302;2023-05-10T07:19:21;5.60;;;3.20;;
33160;SDS011;19522;45.656;11.302;2023-05-10T07:21:47;5.38;;;3.17;;
33160;SDS011;19522;45.656;11.302;2023-05-10T07:24:13;4.35;;;2.70;;
33160;SDS011;19522;45.656;11.302;2023-05-10T07:26:39;4.85;;;2.90;;
33160;SDS011;19522;45.656;11.302;2023-05-10T07:29:05;5.28;;;3.10;;
33160;SDS011;19522;45.656;11.302;2023-05-10T07:31:30;5.13;;;3.40;;
33160;SDS011;19522;45.656;11.302;2023-05-10T07:33:56;3.97;;;3.15;;
33160;SDS011;19522;45.656;11.302;2023-05-10T07:36:21;12.15;;;3.80;;
33160;SDS011;19522;45.656;11.302;2023-05-10T07:38:47;5.45;;;3.30;;
33160;SDS011;19522;45.656;11.302;2023-05-10T07:41:14;8.45;;;3.40;;
33160;SDS011;19522;45.656;11.302;2023-05-10T07:43:40;5.35;;;3.75;;
33160;SDS011;19522;45.656;11.302;2023-05-10T07:46:05;6.50;;;3.05;;
33160;SDS011;19522;45.656;11.302;2023-05-10T07:48:31;4.45;;;3.55;;
33160;SDS011;19522;45.656;11.302;2023-05-10T07:50:56;6.13;;;3.17;;
33160;SDS011;19522;45.656;11.302;2023-05-10T07:53:22;5.60;;;3.25;;
33160;SDS011;19522;45.656;11.302;2023-05-10T07:55:51;5.05;;;3.97;;
33160;SDS011;19522;45.656;11.302;2023-05-10T07:58:19;5.25;;;3.90;;
33160;SDS011;19522;45.656;11.302;2023-05-10T08:00:45;6.28;;;3.80;;
33160;SDS011;19522;45.656;11.302;2023-05-10T08:03:10;5.70;;;3.58;;
33160;SDS011;19522;45.656;11.302;2023-05-10T08:05:36;5.20;;;3.90;;
33160;SDS011;19522;45.656;11.302;2023-05-10T08:08:01;5.88;;;3.85;;
33160;SDS011;19522;45.656;11.302;2023-05-10T08:10:26;6.50;;;4.10;;
33160;SDS011;19522;45.656;11.302;2023-05-10T08:12:52;5.05;;;3.88;;
33160;SDS011;19522;45.656;11.302;2023-05-10T08:15:18;6.72;;;4.25;;
33160;SDS011;19522;45.656;11.302;2023-05-10T08:17:43;5.22;;;3.88;;
33160;SDS011;19522;45.656;11.302;2023-05-10T08:20:08;6.60;;;4.05;;
33160;SDS011;19522;45.656;11.302;2023-05-10T08:22:34;6.00;;;3.92;;
33160;SDS011;19522;45.656;11.302;2023-05-10T08:24:59;8.73;;;4.85;;
33160;SDS011;19522;45.656;11.302;2023-05-10T08:27:25;38.95;;;19.13;;
33160;SDS011;19522;45.656;11.302;2023-05-10T08:29:50;21.63;;;11.32;;
33160;SDS011;19522;45.656;11.302;2023-05-10T08:32:16;17.27;;;9.43;;
33160;SDS011;19522;45.656;11.302;2023-05-10T08:34:42;13.77;;;8.80;;
33160;SDS011;19522;45.656;11.302;2023-05-10T08:37:08;17.42;;;12.13;;
33160;SDS011;19522;45.656;11.302;2023-05-10T08:39:34;11.40;;;8.27;;
33160;SDS011;19522;45.656;11.302;2023-05-10T08:42:01;6.57;;;4.90;;
33160;SDS011;19522;45.656;11.302;2023-05-10T08:44:30;6.05;;;4.43;;
33160;SDS011;19522;45.656;11.302;2023-05-10T08:46:57;6.78;;;4.20;;
33160;SDS011;19522;45.656;11.302;2023-05-10T08:49:26;8.45;;;4.18;;
33160;SDS011;19522;45.656;11.302;2023-05-10T08:51:56;4.75;;;3.95;;
33160;SDS011;19522;45.656;11.302;2023-05-10T08:54:24;7.65;;;4.35;;
33160;SDS011;19522;45.656;11.302;2023-05-10T08:56:50;6.75;;;3.75;;
33160;SDS011;19522;45.656;11.302;2023-05-10T08:59:19;7.05;;;3.97;;
33160;SDS011;19522;45.656;11.302;2023-05-10T09:01:46;6.35;;;4.22;;
33160;SDS011;19522;45.656;11.302;2023-05-10T09:04:14;6.28;;;3.78;;
33160;SDS011;19522;45.656;11.302;2023-05-10T09:06:39;5.65;;;4.28;;
33160;SDS011;19522;45.656;11.302;2023-05-10T09:09:06;9.60;;;4.22;;
33160;SDS011;19522;45.656;11.302;2023-05-10T09:11:31;7.07;;;4.45;;
33160;SDS011;19522;45.656;11.302;2023-05-10T09:13:57;4.63;;;3.67;;
33160;SDS011;19522;45.656;11.302;2023-05-10T09:16:23;8.75;;;3.83;;
33160;SDS011;19522;45.656;11.302;2023-05-10T09:18:49;5.47;;;3.60;;
33160;SDS011;19522;45.656;11.302;2023-05-10T09:21:17;7.32;;;3.42;;
33160;SDS011;19522;45.656;11.302;2023-05-10T09:23:44;5.15;;;3.30;;
33160;SDS011;19522;45.656;11.302;2023-05-10T09:26:14;4.75;;;3.55;;
33160;SDS011;19522;45.656;11.302;2023-05-10T09:31:43;5.25;;;3.22;;
33160;SDS011;19522;45.656;11.302;2023-05-10T09:34:30;4.68;;;2.75;;
33160;SDS011;19522;45.656;11.302;2023-05-10T09:36:57;3.72;;;2.75;;
33160;SDS011;19522;45.656;11.302;2023-05-10T09:39:38;3.25;;;2.53;;
33160;SDS011;19522;45.656;11.302;2023-05-10T09:42:09;4.80;;;3.00;;
33160;SDS011;19522;45.656;11.302;2023-05-10T09:44:35;4.30;;;2.85;;
33160;SDS011;19522;45.656;11.302;2023-05-10T09:47:02;4.82;;;3.00;;
33160;SDS011;19522;45.656;11.302;2023-05-10T09:49:28;5.05;;;3.03;;
33160;SDS011;19522;45.656;11.302;2023-05-10T09:52:03;3.88;;;2.80;;
33160;SDS011;19522;45.656;11.302;2023-05-10T09:54:32;4.20;;;3.08;;
33160;SDS011;19522;45.656;11.302;2023-05-10T09:56:59;3.80;;;2.72;;
33160;SDS011;19522;45.656;11.302;2023-05-10T09:59:26;4.32;;;3.00;;
33160;SDS011;19522;45.656;11.302;2023-05-10T10:01:57;5.32;;;4.80;;
33160;SDS011;19522;45.656;11.302;2023-05-10T10:04:23;4.13;;;2.97;;
33160;SDS011;19522;45.656;11.302;2023-05-10T10:07:01;3.85;;;3.03;;
33160;SDS011;19522;45.656;11.302;2023-05-10T10:09:29;4.63;;;3.35;;
33160;SDS011;19522;45.656;11.302;2023-05-10T10:11:54;4.28;;;3.42;;
33160;SDS011;19522;45.656;11.302;2023-05-10T10:14:24;5.78;;;3.70;;
33160;SDS011;19522;45.656;11.302;2023-05-10T10:16:50;6.00;;;3.42;;
33160;SDS011;19522;45.656;11.302;2023-05-10T10:19:17;7.65;;;3.50;;
33160;SDS011;19522;45.656;11.302;2023-05-10T10:21:44;4.97;;;3.00;;
33160;SDS011;19522;45.656;11.302;2023-05-10T10:24:09;4.72;;;3.40;;
33160;SDS011;19522;45.656;11.302;2023-05-10T10:26:35;3.97;;;2.65;;
33160;SDS011;19522;45.656;11.302;2023-05-10T10:29:39;3.60;;;2.92;;
33160;SDS011;19522;45.656;11.302;2023-05-10T10:32:12;5.45;;;3.00;;
33160;SDS011;19522;45.656;11.302;2023-05-10T10:34:44;4.18;;;3.13;;
33160;SDS011;19522;45.656;11.302;2023-05-10T10:37:09;5.15;;;3.42;;
33160;SDS011;19522;45.656;11.302;2023-05-10T10:39:35;4.28;;;2.90;;
33160;SDS011;19522;45.656;11.302;2023-05-10T10:42:01;3.35;;;2.60;;
33160;SDS011;19522;45.656;11.302;2023-05-10T10:57:26;3.97;;;2.92;;
33160;SDS011;19522;45.656;11.302;2023-05-10T11:02:47;4.00;;;2.83;;
33160;SDS011;19522;45.656;11.302;2023-05-10T11:05:34;5.18;;;2.83;;
33160;SDS011;19522;45.656;11.302;2023-05-10T11:08:09;5.53;;;3.08;;
33160;SDS011;19522;45.656;11.302;2023-05-10T11:10:36;5.13;;;3.40;;
33160;SDS011;19522;45.656;11.302;2023-05-10T11:13:06;4.70;;;3.33;;
33160;SDS011;19522;45.656;11.302;2023-05-10T11:15:36;3.85;;;3.13;;
33160;SDS011;19522;45.656;11.302;2023-05-10T11:18:22;3.25;;;2.75;;
33160;SDS011;19522;45.656;11.302;2023-05-10T11:21:01;4.50;;;3.50;;
33160;SDS011;19522;45.656;11.302;2023-05-10T11:23:47;4.75;;;3.63;;
33160;SDS011;19522;45.656;11.302;2023-05-10T11:26:25;4.88;;;3.95;;
33160;SDS011;19522;45.656;11.302;2023-05-10T11:28:56;5.97;;;4.07;;
33160;SDS011;19522;45.656;11.302;2023-05-10T11:31:22;4.18;;;3.40;;
33160;SDS011;19522;45.656;11.302;2023-05-10T11:33:51;4.00;;;3.28;;
33160;SDS011;19522;45.656;11.302;2023-05-10T11:36:21;4.25;;;3.20;;
33160;SDS011;19522;45.656;11.302;2023-05-10T11:38:49;5.35;;;3.20;;
33160;SDS011;19522;45.656;11.302;2023-05-10T11:41:18;3.78;;;2.63;;
33160;SDS011;19522;45.656;11.302;2023-05-10T11:43:46;4.18;;;2.97;;
33160;SDS011;19522;45.656;11.302;2023-05-10T11:46:14;3.78;;;2.83;;
33160;SDS011;19522;45.656;11.302;2023-05-10T11:48:41;3.88;;;2.53;;
33160;SDS011;19522;45.656;11.302;2023-05-10T11:51:08;3.17;;;2.85;;
33160;SDS011;19522;45.656;11.302;2023-05-10T11:53:34;4.40;;;3.20;;
33160;SDS011;19522;45.656;11.302;2023-05-10T11:56:07;3.95;;;2.33;;
33160;SDS011;19522;45.656;11.302;2023-05-10T11:58:34;5.23;;;3.17;;
33160;SDS011;19522;45.656;11.302;2023-05-10T12:01:01;4.63;;;3.33;;
33160;SDS011;19522;45.656;11.302;2023-05-10T12:03:28;4.28;;;3.25;;
33160;SDS011;19522;45.656;11.302;2023-05-10T12:05:57;4.95;;;2.92;;
33160;SDS011;19522;45.656;11.302;2023-05-10T12:08:24;4.13;;;2.80;;
33160;SDS011;19522;45.656;11.302;2023-05-10T12:10:51;5.00;;;3.08;;
33160;SDS011;19522;45.656;11.302;2023-05-10T12:13:17;5.88;;;2.80;;
33160;SDS011;19522;45.656;11.302;2023-05-10T12:15:45;3.40;;;2.45;;
33160;SDS011;19522;45.656;11.302;2023-05-10T12:18:11;3.67;;;2.75;;
33160;SDS011;19522;45.656;11.302;2023-05-10T12:20:38;3.65;;;2.70;;
33160;SDS011;19522;45.656;11.302;2023-05-10T12:23:04;4.18;;;2.83;;
33160;SDS011;19522;45.656;11.302;2023-05-10T12:25:34;3.88;;;2.70;;
33160;SDS011;19522;45.656;11.302;2023-05-10T12:28:02;4.00;;;3.47;;
33160;SDS011;19522;45.656;11.302;2023-05-10T12:30:30;5.00;;;3.63;;
33160;SDS011;19522;45.656;11.302;2023-05-10T12:33:00;3.47;;;2.80;;
33160;SDS011;19522;45.656;11.302;2023-05-10T12:35:29;4.00;;;2.60;;
33160;SDS011;19522;45.656;11.302;2023-05-10T12:37:58;4.43;;;2.80;;
33160;SDS011;19522;45.656;11.302;2023-05-10T12:40:24;5.65;;;4.05;;
33160;SDS011;19522;45.656;11.302;2023-05-10T12:42:50;4.68;;;3.90;;
33160;SDS011;19522;45.656;11.302;2023-05-10T12:45:16;10.02;;;4.60;;
33160;SDS011;19522;45.656;11.302;2023-05-10T12:47:42;5.57;;;4.05;;
33160;SDS011;19522;45.656;11.302;2023-05-10T12:50:08;6.57;;;4.30;;
33160;SDS011;19522;45.656;11.302;2023-05-10T12:52:34;6.35;;;4.53;;
33160;SDS011;19522;45.656;11.302;2023-05-10T12:54:59;5.95;;;4.80;;
33160;SDS011;19522;45.656;11.302;2023-05-10T12:57:26;6.47;;;4.43;;
33160;SDS011;19522;45.656;11.302;2023-05-10T12:59:52;5.05;;;4.20;;
33160;SDS011;19522;45.656;11.302;2023-05-10T13:02:18;5.05;;;3.80;;
33160;SDS011;19522;45.656;11.302;2023-05-10T13:04:45;4.97;;;3.38;;
33160;SDS011;19522;45.656;11.302;2023-05-10T13:07:11;4.82;;;3.80;;
33160;SDS011;19522;45.656;11.302;2023-05-10T13:09:37;5.38;;;3.53;;
33160;SDS011;19522;45.656;11.302;2023-05-10T13:12:02;8.32;;;3.78;;
33160;SDS011;19522;45.656;11.302;2023-05-10T13:14:29;4.88;;;3.80;;
33160;SDS011;19522;45.656;11.302;2023-05-10T13:16:54;5.25;;;4.28;;
33160;SDS011;19522;45.656;11.302;2023-05-10T13:19:20;5.95;;;3.80;;
33160;SDS011;19522;45.656;11.302;2023-05-10T13:21:46;5.18;;;4.03;;
33160;SDS011;19522;45.656;11.302;2023-05-10T13:24:11;6.53;;;4.10;;
33160;SDS011;19522;45.656;11.302;2023-05-10T13:26:38;4.60;;;3.60;;
33160;SDS011;19522;45.656;11.302;2023-05-10T13:29:10;5.10;;;4.10;;
33160;SDS011;19522;45.656;11.302;2023-05-10T13:31:36;4.90;;;3.33;;
33160;SDS011;19522;45.656;11.302;2023-05-10T13:34:01;5.20;;;3.75;;
33160;SDS011;19522;45.656;11.302;2023-05-10T13:36:27;3.90;;;3.13;;
33160;SDS011;19522;45.656;11.302;2023-05-10T13:38:53;5.28;;;3.45;;
33160;SDS011;19522;45.656;11.302;2023-05-10T13:41:18;4.30;;;3.33;;
33160;SDS011;19522;45.656;11.302;2023-05-10T13:43:44;6.28;;;3.72;;
33160;SDS011;19522;45.656;11.302;2023-05-10T13:46:09;4.00;;;3.08;;
33160;SDS011;19522;45.656;11.302;2023-05-10T13:48:35;5.25;;;2.67;;
33160;SDS011;19522;45.656;11.302;2023-05-10T13:51:03;4.43;;;2.67;;
33160;SDS011;19522;45.656;11.302;2023-05-10T13:53:29;4.65;;;2.90;;
33160;SDS011;19522;45.656;11.302;2023-05-10T13:55:54;4.15;;;3.05;;
33160;SDS011;19522;45.656;11.302;2023-05-10T13:58:20;4.88;;;3.30;;
33160;SDS011;19522;45.656;11.302;2023-05-10T14:00:45;4.75;;;3.58;;
33160;SDS011;19522;45.656;11.302;2023-05-10T14:03:11;4.45;;;3.60;;
33160;SDS011;19522;45.656;11.302;2023-05-10T14:05:36;4.53;;;3.40;;
33160;SDS011;19522;45.656;11.302;2023-05-10T14:08:02;5.43;;;3.72;;
33160;SDS011;19522;45.656;11.302;2023-05-10T14:10:30;4.57;;;3.13;;
33160;SDS011;19522;45.656;11.302;2023-05-10T14:12:55;5.60;;;3.75;;
33160;SDS011;19522;45.656;11.302;2023-05-10T14:15:21;5.38;;;3.30;;
33160;SDS011;19522;45.656;11.302;2023-05-10T14:17:46;4.03;;;2.97;;
33160;SDS011;19522;45.656;11.302;2023-05-10T14:20:12;5.38;;;3.88;;
33160;SDS011;19522;45.656;11.302;2023-05-10T14:22:38;5.50;;;3.70;;
33160;SDS011;19522;45.656;11.302;2023-05-10T14:25:06;6.00;;;4.00;;
33160;SDS011;19522;45.656;11.302;2023-05-10T14:27:32;4.70;;;3.75;;
33160;SDS011;19522;45.656;11.302;2023-05-10T14:29:58;5.03;;;3.83;;
33160;SDS011;19522;45.656;11.302;2023-05-10T14:32:23;8.75;;;5.93;;
33160;SDS011;19522;45.656;11.302;2023-05-10T14:34:49;8.23;;;5.10;;
33160;SDS011;19522;45.656;11.302;2023-05-10T14:37:14;4.15;;;3.75;;
33160;SDS011;19522;45.656;11.302;2023-05-10T14:39:40;3.78;;;3.20;;
33160;SDS011;19522;45.656;11.302;2023-05-10T14:42:07;4.70;;;3.40;;
33160;SDS011;19522;45.656;11.302;2023-05-10T14:44:35;3.33;;;3.03;;
33160;SDS011;19522;45.656;11.302;2023-05-10T14:47:01;7.00;;;3.05;;
33160;SDS011;19522;45.656;11.302;2023-05-10T14:49:27;4.13;;;2.80;;
33160;SDS011;19522;45.656;11.302;2023-05-10T14:51:52;3.13;;;2.60;;
33160;SDS011;19522;45.656;11.302;2023-05-10T14:54:18;4.63;;;2.70;;
33160;SDS011;19522;45.656;11.302;2023-05-10T14:56:43;3.10;;;2.58;;
33160;SDS011;19522;45.656;11.302;2023-05-10T14:59:09;3.13;;;2.30;;
33160;SDS011;19522;45.656;11.302;2023-05-10T15:01:34;2.70;;;2.15;;
33160;SDS011;19522;45.656;11.302;2023-05-10T15:04:03;4.18;;;2.63;;
33160;SDS011;19522;45.656;11.302;2023-05-10T15:06:32;3.30;;;2.17;;
33160;SDS011;19522;45.656;11.302;2023-05-10T15:08:59;2.92;;;2.40;;
33160;SDS011;19522;45.656;11.302;2023-05-10T15:11:43;2.65;;;1.92;;